sensor_id;sensor_type;location;lat;lon;timestamp;P1;durP1;ratioP1;P2;durP2;ratioP2
20038;SDS011;21737;42.868;25.320;2023-12-20T00:01:06;4.57;;;2.00;;
20038;SDS011;21737;42.868;25.320;2023-12-20T00:03:32;5.55;;;2.47;;
20038;SDS011;21737;42.868;25.320;2023-12-20T00:05:58;2.72;;;1.27;;
20038;SDS011;21737;42.868;25.320;2023-12-20T00:08:24;8.23;;;3.45;;
20038;SDS011;21737;42.868;25.320;2023-12-20T00:10:51;13.23;;;3.92;;
20038;SDS011;21737;42.868;25.320;2023-12-20T00:13:17;3.67;;;1.77;;
20038;SDS011;21737;42.868;25.320;2023-12-20T00:15:42;3.75;;;1.23;;
20038;SDS011;21737;42.868;25.320;2023-12-20T00:18:08;7.10;;;2.42;;
20038;SDS011;21737;42.868;25.320;2023-12-20T00:20:34;5.97;;;2.60;;
20038;SDS011;21737;42.868;25.320;2023-12-20T00:23:01;4.10;;;1.65;;
20038;SDS011;21737;42.868;25.320;2023-12-20T00:25:27;2.42;;;1.15;;
20038;SDS011;21737;42.868;25.320;2023-12-20T00:27:53;2.67;;;0.98;;
20038;SDS011;21737;42.868;25.320;2023-12-20T00:30:19;3.65;;;2.35;;
20038;SDS011;21737;42.868;25.320;2023-12-20T00:32:45;4.82;;;1.75;;
20038;SDS011;21737;42.868;25.320;2023-12-20T00:35:14;4.57;;;2.38;;
20038;SDS011;21737;42.868;25.320;2023-12-20T00:37:41;2.50;;;0.88;;
20038;SDS011;21737;42.868;25.320;2023-12-20T00:40:09;3.15;;;0.50;;
20038;SDS011;21737;42.868;25.320;2023-12-20T00:42:35;1.48;;;0.68;;
20038;SDS011;21737;42.868;25.320;2023-12-20T00:45:01;2.78;;;1.10;;
20038;SDS011;21737;42.868;25.320;2023-12-20T00:47:28;3.22;;;1.67;;
20038;SDS011;21737;42.868;25.320;2023-12-20T00:49:54;2.58;;;1.10;;
20038;SDS011;21737;42.868;25.320;2023-12-20T00:52:19;3.53;;;1.33;;
20038;SDS011;21737;42.868;25.320;2023-12-20T00:54:47;2.90;;;1.33;;
20038;SDS011;21737;42.868;25.320;2023-12-20T00:57:14;1.80;;;0.95;;
20038;SDS011;21737;42.868;25.320;2023-12-20T00:59:40;3.10;;;1.67;;
20038;SDS011;21737;42.868;25.320;2023-12-20T01:02:06;2.92;;;0.80;;
20038;SDS011;21737;42.868;25.320;2023-12-20T01:04:32;1.65;;;0.55;;
20038;SDS011;21737;42.868;25.320;2023-12-20T01:06:58;3.15;;;1.15;;
20038;SDS011;21737;42.868;25.320;2023-12-20T01:09:24;3.55;;;1.10;;
20038;SDS011;21737;42.868;25.320;2023-12-20T01:11:52;3.35;;;1.10;;
20038;SDS011;21737;42.868;25.320;2023-12-20T01:14:18;3.80;;;1.30;;
20038;SDS011;21737;42.868;25.320;2023-12-20T01:16:44;2.83;;;0.85;;
20038;SDS011;21737;42.868;25.320;2023-12-20T01:19:11;4.63;;;1.50;;
20038;SDS011;21737;42.868;25.320;2023-12-20T01:21:37;5.18;;;1.35;;
20038;SDS011;21737;42.868;25.320;2023-12-20T01:24:03;1.67;;;0.90;;
20038;SDS011;21737;42.868;25.320;2023-12-20T01:26:30;2.65;;;1.00;;
20038;SDS011;21737;42.868;25.320;2023-12-20T01:28:55;1.92;;;1.10;;
20038;SDS011;21737;42.868;25.320;2023-12-20T01:31:21;1.88;;;0.90;;
20038;SDS011;21737;42.868;25.320;2023-12-20T01:33:47;2.08;;;1.10;;
20038;SDS011;21737;42.868;25.320;2023-12-20T01:36:13;3.38;;;1.30;;
20038;SDS011;21737;42.868;25.320;2023-12-20T01:38:39;2.05;;;1.33;;
20038;SDS011;21737;42.868;25.320;2023-12-20T01:41:06;2.60;;;1.35;;
20038;SDS011;21737;42.868;25.320;2023-12-20T01:43:32;3.85;;;1.25;;
20038;SDS011;21737;42.868;25.320;2023-12-20T01:45:58;3.80;;;1.13;;
20038;SDS011;21737;42.868;25.320;2023-12-20T01:48:25;2.83;;;0.80;;
20038;SDS011;21737;42.868;25.320;2023-12-20T01:50:53;2.33;;;0.77;;
20038;SDS011;21737;42.868;25.320;2023-12-20T01:53:20;2.00;;;0.90;;
20038;SDS011;21737;42.868;25.320;2023-12-20T01:55:50;3.97;;;1.02;;
20038;SDS011;21737;42.868;25.320;2023-12-20T01:58:18;2.65;;;1.10;;
20038;SDS011;21737;42.868;25.320;2023-12-20T02:00:45;3.42;;;1.17;;
20038;SDS011;21737;42.868;25.320;2023-12-20T02:03:11;2.50;;;0.73;;
20038;SDS011;21737;42.868;25.320;2023-12-20T02:05:37;3.30;;;1.00;;
20038;SDS011;21737;42.868;25.320;2023-12-20T02:08:05;3.47;;;1.23;;
20038;SDS011;21737;42.868;25.320;2023-12-20T02:10:32;5.95;;;2.25;;
20038;SDS011;21737;42.868;25.320;2023-12-20T02:12:58;3.33;;;0.85;;
20038;SDS011;21737;42.868;25.320;2023-12-20T02:15:24;3.30;;;1.20;;
20038;SDS011;21737;42.868;25.320;2023-12-20T02:17:51;4.45;;;1.33;;
20038;SDS011;21737;42.868;25.320;2023-12-20T02:20:18;2.50;;;1.15;;
20038;SDS011;21737;42.868;25.320;2023-12-20T02:22:45;3.33;;;1.10;;
20038;SDS011;21737;42.868;25.320;2023-12-20T02:25:10;2.10;;;0.77;;
20038;SDS011;21737;42.868;25.320;2023-12-20T02:27:36;2.83;;;1.40;;
20038;SDS011;21737;42.868;25.320;2023-12-20T02:30:02;2.03;;;0.85;;
20038;SDS011;21737;42.868;25.320;2023-12-20T02:32:28;2.97;;;1.40;;
20038;SDS011;21737;42.868;25.320;2023-12-20T02:34:54;2.33;;;1.05;;
20038;SDS011;21737;42.868;25.320;2023-12-20T02:37:21;1.70;;;0.88;;
20038;SDS011;21737;42.868;25.320;2023-12-20T02:39:48;3.20;;;1.15;;
20038;SDS011;21737;42.868;25.320;2023-12-20T02:42:13;2.58;;;1.33;;
20038;SDS011;21737;42.868;25.320;2023-12-20T02:44:40;2.53;;;1.27;;
20038;SDS011;21737;42.868;25.320;2023-12-20T02:47:06;3.50;;;1.08;;
20038;SDS011;21737;42.868;25.320;2023-12-20T02:49:33;3.20;;;1.17;;
20038;SDS011;21737;42.868;25.320;2023-12-20T02:52:00;5.38;;;1.92;;
20038;SDS011;21737;42.868;25.320;2023-12-20T02:54:26;4.90;;;1.63;;
20038;SDS011;21737;42.868;25.320;2023-12-20T02:56:53;3.08;;;1.50;;
20038;SDS011;21737;42.868;25.320;2023-12-20T02:59:18;3.38;;;1.58;;
20038;SDS011;21737;42.868;25.320;2023-12-20T03:01:46;2.17;;;0.82;;
20038;SDS011;21737;42.868;25.320;2023-12-20T03:04:13;3.50;;;1.25;;
20038;SDS011;21737;42.868;25.320;2023-12-20T03:06:41;2.47;;;0.85;;
20038;SDS011;21737;42.868;25.320;2023-12-20T03:09:19;4.25;;;1.45;;
20038;SDS011;21737;42.868;25.320;2023-12-20T03:11:45;3.60;;;1.20;;
20038;SDS011;21737;42.868;25.320;2023-12-20T03:14:12;6.15;;;2.28;;
20038;SDS011;21737;42.868;25.320;2023-12-20T03:16:38;6.07;;;1.90;;
20038;SDS011;21737;42.868;25.320;2023-12-20T03:19:05;4.95;;;0.93;;
20038;SDS011;21737;42.868;25.320;2023-12-20T03:21:31;4.38;;;2.13;;
20038;SDS011;21737;42.868;25.320;2023-12-20T03:23:57;5.72;;;2.03;;
20038;SDS011;21737;42.868;25.320;2023-12-20T03:26:23;4.22;;;1.80;;
20038;SDS011;21737;42.868;25.320;2023-12-20T03:28:49;6.75;;;2.90;;
20038;SDS011;21737;42.868;25.320;2023-12-20T03:31:15;3.10;;;1.55;;
20038;SDS011;21737;42.868;25.320;2023-12-20T03:33:41;3.58;;;1.63;;
20038;SDS011;21737;42.868;25.320;2023-12-20T03:36:07;3.10;;;1.88;;
20038;SDS011;21737;42.868;25.320;2023-12-20T03:38:35;5.93;;;2.63;;
20038;SDS011;21737;42.868;25.320;2023-12-20T03:41:01;5.90;;;2.35;;
20038;SDS011;21737;42.868;25.320;2023-12-20T03:43:27;6.55;;;3.22;;
20038;SDS011;21737;42.868;25.320;2023-12-20T03:45:53;6.55;;;2.55;;
20038;SDS011;21737;42.868;25.320;2023-12-20T03:48:18;6.63;;;2.47;;
20038;SDS011;21737;42.868;25.320;2023-12-20T03:50:44;5.15;;;2.00;;
20038;SDS011;21737;42.868;25.320;2023-12-20T03:53:11;4.20;;;1.80;;
20038;SDS011;21737;42.868;25.320;2023-12-20T03:55:37;2.95;;;1.27;;
20038;SDS011;21737;42.868;25.320;2023-12-20T03:58:03;6.00;;;2.30;;
20038;SDS011;21737;42.868;25.320;2023-12-20T04:00:29;5.85;;;2.65;;
20038;SDS011;21737;42.868;25.320;2023-12-20T04:02:55;4.90;;;2.00;;
20038;SDS011;21737;42.868;25.320;2023-12-20T04:05:21;1.33;;;0.65;;
20038;SDS011;21737;42.868;25.320;2023-12-20T04:07:47;4.03;;;1.80;;
20038;SDS011;21737;42.868;25.320;2023-12-20T04:10:13;3.92;;;1.92;;
20038;SDS011;21737;42.868;25.320;2023-12-20T04:12:39;2.97;;;1.88;;
20038;SDS011;21737;42.868;25.320;2023-12-20T04:15:05;7.75;;;2.50;;
20038;SDS011;21737;42.868;25.320;2023-12-20T04:17:35;5.50;;;1.90;;
20038;SDS011;21737;42.868;25.320;2023-12-20T04:20:01;4.68;;;2.22;;
20038;SDS011;21737;42.868;25.320;2023-12-20T04:22:26;5.78;;;1.95;;
20038;SDS011;21737;42.868;25.320;2023-12-20T04:24:52;3.58;;;1.50;;
20038;SDS011;21737;42.868;25.320;2023-12-20T04:27:18;9.52;;;2.20;;
20038;SDS011;21737;42.868;25.320;2023-12-20T04:29:44;2.17;;;1.08;;
20038;SDS011;21737;42.868;25.320;2023-12-20T04:32:10;2.08;;;1.20;;
20038;SDS011;21737;42.868;25.320;2023-12-20T04:34:36;5.28;;;2.40;;
20038;SDS011;21737;42.868;25.320;2023-12-20T04:37:02;3.80;;;1.60;;
20038;SDS011;21737;42.868;25.320;2023-12-20T04:39:34;7.05;;;2.70;;
20038;SDS011;21737;42.868;25.320;2023-12-20T04:42:01;7.50;;;2.60;;
20038;SDS011;21737;42.868;25.320;2023-12-20T04:44:26;4.85;;;2.28;;
20038;SDS011;21737;42.868;25.320;2023-12-20T04:46:52;6.43;;;2.65;;
20038;SDS011;21737;42.868;25.320;2023-12-20T04:49:18;5.38;;;2.30;;
20038;SDS011;21737;42.868;25.320;2023-12-20T04:51:46;5.47;;;1.73;;
20038;SDS011;21737;42.868;25.320;2023-12-20T04:54:12;3.30;;;1.63;;
20038;SDS011;21737;42.868;25.320;2023-12-20T04:56:41;5.90;;;2.35;;
20038;SDS011;21737;42.868;25.320;2023-12-20T04:59:08;3.50;;;1.90;;
20038;SDS011;21737;42.868;25.320;2023-12-20T05:01:34;4.70;;;2.28;;
20038;SDS011;21737;42.868;25.320;2023-12-20T05:04:00;6.35;;;3.67;;
20038;SDS011;21737;42.868;25.320;2023-12-20T05:06:31;5.05;;;2.13;;
20038;SDS011;21737;42.868;25.320;2023-12-20T05:08:57;9.32;;;3.38;;
20038;SDS011;21737;42.868;25.320;2023-12-20T05:11:23;6.85;;;3.35;;
20038;SDS011;21737;42.868;25.320;2023-12-20T05:13:50;10.95;;;5.03;;
20038;SDS011;21737;42.868;25.320;2023-12-20T05:16:16;12.77;;;4.38;;
20038;SDS011;21737;42.868;25.320;2023-12-20T05:18:43;9.50;;;3.60;;
20038;SDS011;21737;42.868;25.320;2023-12-20T05:21:11;7.28;;;4.47;;
20038;SDS011;21737;42.868;25.320;2023-12-20T05:23:37;9.60;;;3.72;;
20038;SDS011;21737;42.868;25.320;2023-12-20T05:26:03;9.85;;;4.95;;
20038;SDS011;21737;42.868;25.320;2023-12-20T05:28:29;10.73;;;4.95;;
20038;SDS011;21737;42.868;25.320;2023-12-20T05:30:55;11.15;;;4.70;;
20038;SDS011;21737;42.868;25.320;2023-12-20T05:33:20;3.88;;;1.73;;
20038;SDS011;21737;42.868;25.320;2023-12-20T05:35:46;7.90;;;4.30;;
20038;SDS011;21737;42.868;25.320;2023-12-20T05:38:12;3.60;;;1.85;;
20038;SDS011;21737;42.868;25.320;2023-12-20T05:40:38;7.43;;;4.68;;
20038;SDS011;21737;42.868;25.320;2023-12-20T05:43:04;13.73;;;5.43;;
20038;SDS011;21737;42.868;25.320;2023-12-20T05:45:30;11.98;;;6.35;;
20038;SDS011;21737;42.868;25.320;2023-12-20T05:47:56;11.07;;;4.60;;
20038;SDS011;21737;42.868;25.320;2023-12-20T05:50:22;8.80;;;4.07;;
20038;SDS011;21737;42.868;25.320;2023-12-20T05:52:48;7.88;;;3.42;;
20038;SDS011;21737;42.868;25.320;2023-12-20T05:55:14;6.70;;;3.97;;
20038;SDS011;21737;42.868;25.320;2023-12-20T05:57:40;17.25;;;8.05;;
20038;SDS011;21737;42.868;25.320;2023-12-20T06:00:08;12.13;;;6.50;;
20038;SDS011;21737;42.868;25.320;2023-12-20T06:02:35;5.03;;;2.25;;
20038;SDS011;21737;42.868;25.320;2023-12-20T06:05:02;12.13;;;6.93;;
20038;SDS011;21737;42.868;25.320;2023-12-20T06:07:31;11.68;;;6.57;;
20038;SDS011;21737;42.868;25.320;2023-12-20T06:09:57;8.32;;;5.30;;
20038;SDS011;21737;42.868;25.320;2023-12-20T06:12:23;11.32;;;5.55;;
20038;SDS011;21737;42.868;25.320;2023-12-20T06:14:49;17.58;;;7.82;;
20038;SDS011;21737;42.868;25.320;2023-12-20T06:17:15;21.08;;;9.15;;
20038;SDS011;21737;42.868;25.320;2023-12-20T06:19:42;21.83;;;9.77;;
20038;SDS011;21737;42.868;25.320;2023-12-20T06:22:10;16.33;;;8.18;;
20038;SDS011;21737;42.868;25.320;2023-12-20T06:24:36;18.90;;;9.73;;
20038;SDS011;21737;42.868;25.320;2023-12-20T06:27:02;22.75;;;10.13;;
20038;SDS011;21737;42.868;25.320;2023-12-20T06:29:28;18.85;;;7.28;;
20038;SDS011;21737;42.868;25.320;2023-12-20T06:31:53;13.43;;;7.15;;
20038;SDS011;21737;42.868;25.320;2023-12-20T06:34:19;14.85;;;7.35;;
20038;SDS011;21737;42.868;25.320;2023-12-20T06:36:45;23.80;;;11.45;;
20038;SDS011;21737;42.868;25.320;2023-12-20T06:39:11;29.75;;;13.23;;
20038;SDS011;21737;42.868;25.320;2023-12-20T06:41:38;21.50;;;12.13;;
20038;SDS011;21737;42.868;25.320;2023-12-20T06:44:04;19.27;;;10.88;;
20038;SDS011;21737;42.868;25.320;2023-12-20T06:46:30;21.75;;;10.52;;
20038;SDS011;21737;42.868;25.320;2023-12-20T06:48:56;28.98;;;10.88;;
20038;SDS011;21737;42.868;25.320;2023-12-20T06:51:22;17.52;;;8.40;;
20038;SDS011;21737;42.868;25.320;2023-12-20T06:53:53;18.17;;;10.50;;
20038;SDS011;21737;42.868;25.320;2023-12-20T06:56:19;23.55;;;10.98;;
20038;SDS011;21737;42.868;25.320;2023-12-20T06:58:46;15.00;;;6.65;;
20038;SDS011;21737;42.868;25.320;2023-12-20T07:01:12;18.35;;;9.30;;
20038;SDS011;21737;42.868;25.320;2023-12-20T07:03:41;21.17;;;10.65;;
20038;SDS011;21737;42.868;25.320;2023-12-20T07:06:10;17.52;;;9.38;;
20038;SDS011;21737;42.868;25.320;2023-12-20T07:08:37;24.13;;;11.38;;
20038;SDS011;21737;42.868;25.320;2023-12-20T07:11:03;22.45;;;11.50;;
20038;SDS011;21737;42.868;25.320;2023-12-20T07:13:30;14.18;;;7.30;;
20038;SDS011;21737;42.868;25.320;2023-12-20T07:15:58;21.70;;;10.80;;
20038;SDS011;21737;42.868;25.320;2023-12-20T07:18:25;18.70;;;8.65;;
20038;SDS011;21737;42.868;25.320;2023-12-20T07:20:50;23.63;;;12.77;;
20038;SDS011;21737;42.868;25.320;2023-12-20T07:23:16;30.05;;;14.55;;
20038;SDS011;21737;42.868;25.320;2023-12-20T07:25:43;14.30;;;7.53;;
20038;SDS011;21737;42.868;25.320;2023-12-20T07:28:09;28.13;;;13.40;;
20038;SDS011;21737;42.868;25.320;2023-12-20T07:30:35;20.60;;;10.50;;
20038;SDS011;21737;42.868;25.320;2023-12-20T07:33:02;21.90;;;11.77;;
20038;SDS011;21737;42.868;25.320;2023-12-20T07:35:29;14.43;;;7.25;;
20038;SDS011;21737;42.868;25.320;2023-12-20T07:37:55;23.23;;;11.65;;
20038;SDS011;21737;42.868;25.320;2023-12-20T07:40:22;28.83;;;14.68;;
20038;SDS011;21737;42.868;25.320;2023-12-20T07:42:51;22.63;;;12.20;;
20038;SDS011;21737;42.868;25.320;2023-12-20T07:45:17;25.65;;;12.77;;
20038;SDS011;21737;42.868;25.320;2023-12-20T07:47:44;23.23;;;12.15;;
20038;SDS011;21737;42.868;25.320;2023-12-20T07:50:10;12.00;;;8.13;;
20038;SDS011;21737;42.868;25.320;2023-12-20T07:52:36;15.63;;;8.82;;
20038;SDS011;21737;42.868;25.320;2023-12-20T07:55:03;32.13;;;14.35;;
20038;SDS011;21737;42.868;25.320;2023-12-20T07:57:30;26.80;;;13.88;;
20038;SDS011;21737;42.868;25.320;2023-12-20T08:00:02;26.90;;;11.32;;
20038;SDS011;21737;42.868;25.320;2023-12-20T08:02:31;20.92;;;10.30;;
20038;SDS011;21737;42.868;25.320;2023-12-20T08:04:57;16.23;;;9.05;;
20038;SDS011;21737;42.868;25.320;2023-12-20T08:07:23;22.88;;;11.85;;
20038;SDS011;21737;42.868;25.320;2023-12-20T08:09:49;24.00;;;12.55;;
20038;SDS011;21737;42.868;25.320;2023-12-20T08:12:17;19.55;;;11.73;;
20038;SDS011;21737;42.868;25.320;2023-12-20T08:14:43;16.98;;;9.07;;
20038;SDS011;21737;42.868;25.320;2023-12-20T08:17:09;24.17;;;12.80;;
20038;SDS011;21737;42.868;25.320;2023-12-20T08:19:35;20.20;;;12.20;;
20038;SDS011;21737;42.868;25.320;2023-12-20T08:22:01;20.15;;;12.18;;
20038;SDS011;21737;42.868;25.320;2023-12-20T08:24:29;20.63;;;13.05;;
20038;SDS011;21737;42.868;25.320;2023-12-20T08:26:55;24.02;;;13.65;;
20038;SDS011;21737;42.868;25.320;2023-12-20T08:29:22;19.40;;;13.55;;
20038;SDS011;21737;42.868;25.320;2023-12-20T08:31:51;24.70;;;15.50;;
20038;SDS011;21737;42.868;25.320;2023-12-20T08:34:19;33.92;;;17.30;;
20038;SDS011;21737;42.868;25.320;2023-12-20T08:36:47;29.40;;;15.88;;
20038;SDS011;21737;42.868;25.320;2023-12-20T08:39:13;33.05;;;19.50;;
20038;SDS011;21737;42.868;25.320;2023-12-20T08:41:39;37.75;;;19.48;;
20038;SDS011;21737;42.868;25.320;2023-12-20T08:44:05;50.75;;;24.40;;
20038;SDS011;21737;42.868;25.320;2023-12-20T08:46:31;57.35;;;25.52;;
20038;SDS011;21737;42.868;25.320;2023-12-20T08:48:57;51.05;;;23.38;;
20038;SDS011;21737;42.868;25.320;2023-12-20T08:51:23;39.63;;;19.20;;
20038;SDS011;21737;42.868;25.320;2023-12-20T08:53:51;30.05;;;17.40;;
20038;SDS011;21737;42.868;25.320;2023-12-20T08:56:17;25.75;;;14.40;;
20038;SDS011;21737;42.868;25.320;2023-12-20T08:58:44;28.85;;;16.10;;
20038;SDS011;21737;42.868;25.320;2023-12-20T09:01:10;26.15;;;15.23;;
20038;SDS011;21737;42.868;25.320;2023-12-20T09:03:37;38.90;;;23.48;;
20038;SDS011;21737;42.868;25.320;2023-12-20T09:06:04;58.35;;;34.00;;
20038;SDS011;21737;42.868;25.320;2023-12-20T09:08:30;61.42;;;34.00;;
20038;SDS011;21737;42.868;25.320;2023-12-20T09:10:58;58.88;;;34.80;;
20038;SDS011;21737;42.868;25.320;2023-12-20T09:13:24;54.70;;;30.85;;
20038;SDS011;21737;42.868;25.320;2023-12-20T09:15:56;43.83;;;28.63;;
20038;SDS011;21737;42.868;25.320;2023-12-20T09:18:22;40.03;;;25.40;;
20038;SDS011;21737;42.868;25.320;2023-12-20T09:20:48;43.47;;;27.90;;
20038;SDS011;21737;42.868;25.320;2023-12-20T09:23:15;44.42;;;25.90;;
20038;SDS011;21737;42.868;25.320;2023-12-20T09:25:41;44.30;;;27.33;;
20038;SDS011;21737;42.868;25.320;2023-12-20T09:28:07;49.50;;;28.23;;
20038;SDS011;21737;42.868;25.320;2023-12-20T09:30:33;48.75;;;29.13;;
20038;SDS011;21737;42.868;25.320;2023-12-20T09:33:02;90.03;;;52.67;;
20038;SDS011;21737;42.868;25.320;2023-12-20T09:35:30;59.22;;;33.22;;
20038;SDS011;21737;42.868;25.320;2023-12-20T09:37:56;70.28;;;37.22;;
20038;SDS011;21737;42.868;25.320;2023-12-20T09:40:22;65.38;;;36.70;;
20038;SDS011;21737;42.868;25.320;2023-12-20T09:45:28;55.55;;;30.50;;
20038;SDS011;21737;42.868;25.320;2023-12-20T09:47:57;53.33;;;32.97;;
20038;SDS011;21737;42.868;25.320;2023-12-20T09:50:23;52.00;;;31.83;;
20038;SDS011;21737;42.868;25.320;2023-12-20T09:52:51;33.53;;;21.10;;
20038;SDS011;21737;42.868;25.320;2023-12-20T09:55:19;41.60;;;26.15;;
20038;SDS011;21737;42.868;25.320;2023-12-20T09:57:47;43.95;;;24.25;;
20038;SDS011;21737;42.868;25.320;2023-12-20T10:00:13;28.38;;;14.70;;
20038;SDS011;21737;42.868;25.320;2023-12-20T10:05:13;19.50;;;10.18;;
20038;SDS011;21737;42.868;25.320;2023-12-20T10:07:44;16.10;;;8.07;;
20038;SDS011;21737;42.868;25.320;2023-12-20T10:10:11;21.90;;;9.48;;
20038;SDS011;21737;42.868;25.320;2023-12-20T10:12:39;16.27;;;8.70;;
20038;SDS011;21737;42.868;25.320;2023-12-20T10:15:05;23.90;;;12.00;;
20038;SDS011;21737;42.868;25.320;2023-12-20T10:17:31;30.45;;;19.33;;
20038;SDS011;21737;42.868;25.320;2023-12-20T10:19:58;21.48;;;9.95;;
20038;SDS011;21737;42.868;25.320;2023-12-20T10:22:24;19.27;;;9.18;;
20038;SDS011;21737;42.868;25.320;2023-12-20T10:24:49;17.70;;;9.02;;
20038;SDS011;21737;42.868;25.320;2023-12-20T10:27:16;13.73;;;7.78;;
20038;SDS011;21737;42.868;25.320;2023-12-20T10:29:44;16.90;;;9.43;;
20038;SDS011;21737;42.868;25.320;2023-12-20T10:32:29;17.95;;;9.02;;
20038;SDS011;21737;42.868;25.320;2023-12-20T10:34:55;17.33;;;9.77;;
20038;SDS011;21737;42.868;25.320;2023-12-20T10:37:21;14.00;;;7.78;;
20038;SDS011;21737;42.868;25.320;2023-12-20T10:39:54;14.70;;;8.68;;
20038;SDS011;21737;42.868;25.320;2023-12-20T10:42:26;17.67;;;9.80;;
20038;SDS011;21737;42.868;25.320;2023-12-20T10:44:52;16.55;;;9.77;;
20038;SDS011;21737;42.868;25.320;2023-12-20T10:47:22;17.40;;;10.07;;
20038;SDS011;21737;42.868;25.320;2023-12-20T10:49:51;23.95;;;11.68;;
20038;SDS011;21737;42.868;25.320;2023-12-20T10:52:19;21.73;;;12.25;;
20038;SDS011;21737;42.868;25.320;2023-12-20T10:54:49;21.48;;;10.52;;
20038;SDS011;21737;42.868;25.320;2023-12-20T10:57:16;16.92;;;9.85;;
20038;SDS011;21737;42.868;25.320;2023-12-20T10:59:44;20.50;;;11.40;;
20038;SDS011;21737;42.868;25.320;2023-12-20T11:02:13;23.08;;;11.45;;
20038;SDS011;21737;42.868;25.320;2023-12-20T11:07:32;21.42;;;13.07;;
20038;SDS011;21737;42.868;25.320;2023-12-20T11:12:41;27.27;;;11.95;;
20038;SDS011;21737;42.868;25.320;2023-12-20T11:15:12;30.50;;;17.92;;
20038;SDS011;21737;42.868;25.320;2023-12-20T11:17:44;41.53;;;21.30;;
20038;SDS011;21737;42.868;25.320;2023-12-20T11:20:11;40.50;;;22.08;;
20038;SDS011;21737;42.868;25.320;2023-12-20T11:22:38;41.92;;;22.17;;
20038;SDS011;21737;42.868;25.320;2023-12-20T11:25:17;36.55;;;18.48;;
20038;SDS011;21737;42.868;25.320;2023-12-20T11:27:43;37.13;;;20.17;;
20038;SDS011;21737;42.868;25.320;2023-12-20T11:30:10;33.72;;;18.00;;
20038;SDS011;21737;42.868;25.320;2023-12-20T11:32:37;34.95;;;19.75;;
20038;SDS011;21737;42.868;25.320;2023-12-20T11:37:36;36.92;;;19.08;;
20038;SDS011;21737;42.868;25.320;2023-12-20T11:40:07;44.58;;;23.50;;
20038;SDS011;21737;42.868;25.320;2023-12-20T11:42:48;41.13;;;21.98;;
20038;SDS011;21737;42.868;25.320;2023-12-20T11:45:16;48.90;;;23.63;;
20038;SDS011;21737;42.868;25.320;2023-12-20T11:47:49;46.40;;;24.50;;
20038;SDS011;21737;42.868;25.320;2023-12-20T11:52:42;44.58;;;23.20;;
20038;SDS011;21737;42.868;25.320;2023-12-20T11:55:08;44.83;;;23.60;;
20038;SDS011;21737;42.868;25.320;2023-12-20T11:57:34;43.67;;;23.27;;
20038;SDS011;21737;42.868;25.320;2023-12-20T12:00:02;43.50;;;22.70;;
20038;SDS011;21737;42.868;25.320;2023-12-20T12:02:41;41.97;;;24.13;;
20038;SDS011;21737;42.868;25.320;2023-12-20T12:05:10;40.13;;;22.80;;
20038;SDS011;21737;42.868;25.320;2023-12-20T12:07:37;50.63;;;26.02;;
20038;SDS011;21737;42.868;25.320;2023-12-20T12:10:04;49.70;;;24.67;;
20038;SDS011;21737;42.868;25.320;2023-12-20T12:12:39;40.63;;;22.92;;
20038;SDS011;21737;42.868;25.320;2023-12-20T12:15:05;42.90;;;24.52;;
20038;SDS011;21737;42.868;25.320;2023-12-20T12:17:32;54.13;;;26.33;;
20038;SDS011;21737;42.868;25.320;2023-12-20T12:20:05;84.38;;;33.30;;
20038;SDS011;21737;42.868;25.320;2023-12-20T12:22:32;66.82;;;29.23;;
20038;SDS011;21737;42.868;25.320;2023-12-20T12:25:09;54.10;;;24.10;;
20038;SDS011;21737;42.868;25.320;2023-12-20T12:27:36;48.20;;;21.13;;
20038;SDS011;21737;42.868;25.320;2023-12-20T12:30:04;64.20;;;22.98;;
20038;SDS011;21737;42.868;25.320;2023-12-20T12:32:32;47.40;;;18.55;;
20038;SDS011;21737;42.868;25.320;2023-12-20T12:34:59;29.80;;;15.10;;
20038;SDS011;21737;42.868;25.320;2023-12-20T12:37:38;29.40;;;12.35;;
20038;SDS011;21737;42.868;25.320;2023-12-20T12:40:06;27.58;;;10.88;;
20038;SDS011;21737;42.868;25.320;2023-12-20T12:42:35;26.90;;;10.05;;
20038;SDS011;21737;42.868;25.320;2023-12-20T12:45:02;20.15;;;9.05;;
20038;SDS011;21737;42.868;25.320;2023-12-20T12:47:30;25.17;;;10.75;;
20038;SDS011;21737;42.868;25.320;2023-12-20T12:50:02;34.50;;;15.75;;
20038;SDS011;21737;42.868;25.320;2023-12-20T12:52:30;31.00;;;13.40;;
20038;SDS011;21737;42.868;25.320;2023-12-20T12:54:57;20.08;;;10.43;;
20038;SDS011;21737;42.868;25.320;2023-12-20T12:57:25;15.70;;;8.60;;
20038;SDS011;21737;42.868;25.320;2023-12-20T12:59:51;24.42;;;11.50;;
20038;SDS011;21737;42.868;25.320;2023-12-20T13:02:17;24.00;;;12.30;;
20038;SDS011;21737;42.868;25.320;2023-12-20T13:04:43;15.15;;;7.53;;
20038;SDS011;21737;42.868;25.320;2023-12-20T13:07:09;15.73;;;8.27;;
20038;SDS011;21737;42.868;25.320;2023-12-20T13:12:09;26.05;;;14.07;;
20038;SDS011;21737;42.868;25.320;2023-12-20T13:14:35;25.48;;;11.45;;
20038;SDS011;21737;42.868;25.320;2023-12-20T13:17:05;22.75;;;10.63;;
20038;SDS011;21737;42.868;25.320;2023-12-20T13:19:31;25.80;;;13.23;;
20038;SDS011;21737;42.868;25.320;2023-12-20T13:21:58;29.35;;;12.68;;
20038;SDS011;21737;42.868;25.320;2023-12-20T13:24:24;28.25;;;11.85;;
20038;SDS011;21737;42.868;25.320;2023-12-20T13:26:50;27.77;;;13.82;;
20038;SDS011;21737;42.868;25.320;2023-12-20T13:29:16;26.10;;;14.75;;
20038;SDS011;21737;42.868;25.320;2023-12-20T13:31:42;55.83;;;24.92;;
20038;SDS011;21737;42.868;25.320;2023-12-20T13:34:08;42.60;;;20.15;;
20038;SDS011;21737;42.868;25.320;2023-12-20T13:36:40;38.20;;;17.77;;
20038;SDS011;21737;42.868;25.320;2023-12-20T13:39:08;30.35;;;14.02;;
20038;SDS011;21737;42.868;25.320;2023-12-20T13:41:34;36.67;;;17.63;;
20038;SDS011;21737;42.868;25.320;2023-12-20T13:44:00;30.95;;;14.50;;
20038;SDS011;21737;42.868;25.320;2023-12-20T13:46:28;38.55;;;20.58;;
20038;SDS011;21737;42.868;25.320;2023-12-20T13:48:54;40.03;;;20.65;;
20038;SDS011;21737;42.868;25.320;2023-12-20T13:51:21;45.38;;;21.95;;
20038;SDS011;21737;42.868;25.320;2023-12-20T13:53:47;40.55;;;20.23;;
20038;SDS011;21737;42.868;25.320;2023-12-20T13:56:15;37.40;;;18.58;;
20038;SDS011;21737;42.868;25.320;2023-12-20T13:58:41;42.25;;;23.40;;
20038;SDS011;21737;42.868;25.320;2023-12-20T14:01:08;48.22;;;22.58;;
20038;SDS011;21737;42.868;25.320;2023-12-20T14:03:36;44.97;;;23.27;;
20038;SDS011;21737;42.868;25.320;2023-12-20T14:06:02;42.45;;;20.15;;
20038;SDS011;21737;42.868;25.320;2023-12-20T14:08:28;81.53;;;33.67;;
20038;SDS011;21737;42.868;25.320;2023-12-20T14:10:53;62.55;;;29.20;;
20038;SDS011;21737;42.868;25.320;2023-12-20T14:13:19;74.40;;;33.55;;
20038;SDS011;21737;42.868;25.320;2023-12-20T14:15:53;42.67;;;20.58;;
20038;SDS011;21737;42.868;25.320;2023-12-20T14:18:19;24.55;;;13.48;;
20038;SDS011;21737;42.868;25.320;2023-12-20T14:20:45;26.27;;;12.60;;
20038;SDS011;21737;42.868;25.320;2023-12-20T14:23:14;53.78;;;26.27;;
20038;SDS011;21737;42.868;25.320;2023-12-20T14:25:41;49.30;;;26.10;;
20038;SDS011;21737;42.868;25.320;2023-12-20T14:28:08;47.90;;;23.92;;
20038;SDS011;21737;42.868;25.320;2023-12-20T14:30:35;42.42;;;20.23;;
20038;SDS011;21737;42.868;25.320;2023-12-20T14:33:03;41.55;;;21.10;;
20038;SDS011;21737;42.868;25.320;2023-12-20T14:35:29;46.40;;;18.25;;
20038;SDS011;21737;42.868;25.320;2023-12-20T14:37:56;34.75;;;18.25;;